Time;durP1;ratioP1;P1;durP2;ratioP2;P2;SDS_P1;SDS_P2;PMS_P1;PMS_P2;Temp;Humidity;BMP_temperature;BMP_pressure;BME280_temperature;BME280_humidity;BME280_pressure;Samples;Min_cycle;Max_cycle;Signal;HPM_P1;HPM_P2
2023/01/14 00:01:43;;;;;;;33.70;4.30;;;;;;;;;;5011348;28;20030;-75
2023/01/14 00:04:08;;;;;;;32.97;3.67;;;;;;;;;;5012592;28;20438;-76
2023/01/14 00:06:35;;;;;;;28.58;3.47;;;;;;;;;;4995335;28;20113;-76
2023/01/14 00:09:01;;;;;;;28.97;3.50;;;;;;;;;;5012489;28;20046;-76
2023/01/14 00:14:11;;;;;;;25.17;3.50;;;;;;;;;;5012207;28;20083;-76
2023/01/14 00:16:37;;;;;;;25.70;3.00;;;;;;;;;;4994905;28;20022;-76
2023/01/14 00:19:02;;;;;;;33.22;3.83;;;;;;;;;;5012399;28;20022;-76
2023/01/14 00:21:28;;;;;;;30.10;4.17;;;;;;;;;;4994262;28;20029;-76
2023/01/14 00:23:53;;;;;;;27.83;3.38;;;;;;;;;;4994463;28;20022;-76
2023/01/14 00:26:18;;;;;;;25.43;4.67;;;;;;;;;;4994387;28;20053;-75
2023/01/14 00:28:48;;;;;;;30.67;3.15;;;;;;;;;;5012503;28;20429;-76
2023/01/14 00:31:15;;;;;;;32.77;3.67;;;;;;;;;;4994659;28;20025;-76
2023/01/14 00:33:40;;;;;;;28.23;3.17;;;;;;;;;;5012111;28;20033;-76
2023/01/14 00:36:07;;;;;;;25.02;3.30;;;;;;;;;;5012085;28;20026;-76
2023/01/14 00:38:32;;;;;;;31.13;3.13;;;;;;;;;;5011937;28;20049;-76
2023/01/14 00:41:06;;;;;;;25.50;3.13;;;;;;;;;;5011180;28;20064;-76
2023/01/14 00:43:31;;;;;;;29.77;3.47;;;;;;;;;;5011966;28;20057;-76
2023/01/14 00:45:56;;;;;;;22.70;3.07;;;;;;;;;;4989551;28;20091;-76
2023/01/14 00:48:22;;;;;;;21.13;2.50;;;;;;;;;;5011669;28;20041;-76
2023/01/14 00:50:47;;;;;;;30.13;3.10;;;;;;;;;;5012162;28;20460;-76
2023/01/14 00:53:12;;;;;;;28.38;2.63;;;;;;;;;;5011718;28;20414;-76
2023/01/14 00:55:37;;;;;;;27.80;3.63;;;;;;;;;;4994281;28;20037;-75
2023/01/14 00:58:03;;;;;;;26.67;3.10;;;;;;;;;;4994347;28;20041;-76
2023/01/14 01:00:28;;;;;;;22.57;3.13;;;;;;;;;;5011617;28;20460;-76
2023/01/14 01:02:53;;;;;;;18.87;3.53;;;;;;;;;;5010938;28;20022;-76
2023/01/14 01:05:18;;;;;;;30.40;3.43;;;;;;;;;;5011699;28;20068;-76
2023/01/14 01:07:43;;;;;;;22.17;2.90;;;;;;;;;;5011875;28;20025;-76
2023/01/14 01:10:09;;;;;;;27.27;3.60;;;;;;;;;;5011315;28;20025;-76
2023/01/14 01:12:34;;;;;;;28.50;3.37;;;;;;;;;;5011518;28;20036;-76
2023/01/14 01:14:59;;;;;;;23.37;3.47;;;;;;;;;;5011396;28;20018;-76
2023/01/14 01:17:25;;;;;;;29.33;2.90;;;;;;;;;;4994096;28;20104;-76
2023/01/14 01:19:52;;;;;;;24.93;4.13;;;;;;;;;;5011765;28;20013;-76
2023/01/14 01:22:17;;;;;;;28.93;3.53;;;;;;;;;;5010880;28;20022;-75
2023/01/14 01:24:42;;;;;;;35.20;4.50;;;;;;;;;;5011473;28;20021;-76
2023/01/14 01:27:07;;;;;;;36.23;3.33;;;;;;;;;;4994207;28;20049;-76
2023/01/14 01:29:33;;;;;;;27.40;3.60;;;;;;;;;;4993516;28;20357;-75
2023/01/14 01:31:58;;;;;;;36.53;4.73;;;;;;;;;;5011575;28;20061;-76
2023/01/14 01:34:23;;;;;;;28.70;3.93;;;;;;;;;;5011517;28;20025;-75
2023/01/14 01:36:48;;;;;;;30.67;3.57;;;;;;;;;;5011465;28;20010;-76
2023/01/14 01:39:13;;;;;;;20.30;3.50;;;;;;;;;;5011155;28;20022;-76
2023/01/14 01:41:39;;;;;;;24.00;3.33;;;;;;;;;;5009922;28;20026;-76
2023/01/14 01:44:04;;;;;;;29.97;3.97;;;;;;;;;;5010744;28;20029;-76
2023/01/14 01:46:29;;;;;;;26.97;3.60;;;;;;;;;;5006877;28;20022;-76
2023/01/14 01:48:58;;;;;;;20.70;2.30;;;;;;;;;;5011427;28;20017;-76
2023/01/14 01:51:25;;;;;;;27.23;3.13;;;;;;;;;;4993866;28;20025;-75
2023/01/14 01:53:52;;;;;;;20.43;2.77;;;;;;;;;;5010912;28;20017;-76
2023/01/14 01:56:19;;;;;;;22.23;3.30;;;;;;;;;;5011470;28;20018;-75
2023/01/14 01:58:44;;;;;;;19.83;2.90;;;;;;;;;;5011163;28;20018;-76
2023/01/14 02:01:10;;;;;;;22.47;2.70;;;;;;;;;;5010552;28;20556;-76
2023/01/14 02:03:37;;;;;;;24.70;2.57;;;;;;;;;;5003779;28;20108;-76
2023/01/14 02:06:02;;;;;;;25.57;3.10;;;;;;;;;;5011511;28;20022;-76
2023/01/14 02:08:28;;;;;;;24.90;2.93;;;;;;;;;;5010891;28;20557;-76
2023/01/14 02:11:16;;;;;;;28.07;2.83;;;;;;;;;;5010297;28;20104;-76
2023/01/14 02:13:58;;;;;;;23.03;3.00;;;;;;;;;;5010884;28;20038;-76
2023/01/14 02:16:31;;;;;;;24.58;2.67;;;;;;;;;;5011171;28;20018;-78
2023/01/14 02:19:14;;;;;;;29.83;2.67;;;;;;;;;;5011077;28;20585;-76
2023/01/14 02:21:41;;;;;;;16.27;2.43;;;;;;;;;;4991488;28;20382;-75
2023/01/14 02:24:25;;;;;;;24.20;4.07;;;;;;;;;;5009246;28;20449;-76
2023/01/14 02:27:11;;;;;;;23.23;2.17;;;;;;;;;;5012015;28;20331;-76
2023/01/14 02:29:45;;;;;;;14.07;2.37;;;;;;;;;;4996785;28;20064;-76
2023/01/14 02:32:22;;;;;;;15.47;2.40;;;;;;;;;;4995430;28;20033;-75
2023/01/14 02:35:04;;;;;;;16.97;2.30;;;;;;;;;;5013897;28;20018;-76
2023/01/14 02:37:48;;;;;;;19.17;2.13;;;;;;;;;;5014080;28;20385;-76
2023/01/14 02:40:21;;;;;;;20.87;2.83;;;;;;;;;;4996133;28;20022;-75
2023/01/14 02:45:41;;;;;;;20.60;2.60;;;;;;;;;;5002191;28;20052;-76
2023/01/14 02:48:07;;;;;;;22.60;2.40;;;;;;;;;;5014201;28;20373;-76
2023/01/14 02:50:34;;;;;;;22.07;3.17;;;;;;;;;;5013957;28;20022;-76
2023/01/14 02:52:59;;;;;;;21.70;2.50;;;;;;;;;;5014034;28;20092;-76
2023/01/14 02:55:32;;;;;;;18.53;2.30;;;;;;;;;;5013986;28;20022;-76
2023/01/14 02:58:09;;;;;;;27.73;2.83;;;;;;;;;;5013806;28;20014;-76
2023/01/14 03:00:41;;;;;;;21.50;2.30;;;;;;;;;;5014296;28;20014;-76
2023/01/14 03:03:15;;;;;;;22.58;2.53;;;;;;;;;;5013158;28;20385;-76
2023/01/14 03:05:43;;;;;;;20.87;2.40;;;;;;;;;;4996271;28;20025;-75
2023/01/14 03:08:11;;;;;;;13.17;2.10;;;;;;;;;;5013419;28;20009;-76
2023/01/14 03:10:41;;;;;;;22.63;1.97;;;;;;;;;;5013809;28;20083;-76
2023/01/14 03:13:12;;;;;;;15.15;1.80;;;;;;;;;;5013586;28;20029;-76
2023/01/14 03:15:49;;;;;;;20.58;2.35;;;;;;;;;;4996121;28;20080;-76
2023/01/14 03:18:25;;;;;;;15.90;2.73;;;;;;;;;;5013637;28;20473;-76
2023/01/14 03:20:52;;;;;;;19.93;2.57;;;;;;;;;;5014154;28;20018;-76
2023/01/14 03:23:19;;;;;;;24.47;2.43;;;;;;;;;;4994110;28;20033;-76
2023/01/14 03:25:46;;;;;;;17.40;2.30;;;;;;;;;;5013521;28;20052;-76
2023/01/14 03:28:13;;;;;;;29.63;2.83;;;;;;;;;;5013307;28;20030;-76
2023/01/14 03:30:41;;;;;;;17.43;2.03;;;;;;;;;;4996138;28;20338;-76
2023/01/14 03:33:06;;;;;;;22.63;2.40;;;;;;;;;;5013746;28;20029;-75
2023/01/14 03:35:33;;;;;;;16.77;2.00;;;;;;;;;;5012183;28;20481;-76
2023/01/14 03:38:01;;;;;;;15.87;2.47;;;;;;;;;;4995608;28;20014;-76
2023/01/14 03:40:28;;;;;;;20.23;2.20;;;;;;;;;;4995293;28;20022;-76
2023/01/14 03:42:55;;;;;;;15.03;2.47;;;;;;;;;;5011555;28;20137;-76
2023/01/14 03:45:29;;;;;;;15.47;1.80;;;;;;;;;;5002789;28;20474;-75
2023/01/14 03:47:54;;;;;;;21.67;2.50;;;;;;;;;;5013180;28;20025;-76
2023/01/14 03:50:23;;;;;;;18.23;2.00;;;;;;;;;;5012574;28;20330;-76
2023/01/14 03:52:48;;;;;;;21.55;2.67;;;;;;;;;;5013069;28;20014;-76
2023/01/14 03:55:16;;;;;;;19.67;2.15;;;;;;;;;;5013273;28;20096;-76
2023/01/14 03:57:48;;;;;;;15.93;2.33;;;;;;;;;;5012941;28;20034;-76
2023/01/14 04:00:19;;;;;;;11.55;1.25;;;;;;;;;;5013096;28;20021;-76
2023/01/14 04:02:45;;;;;;;19.60;2.30;;;;;;;;;;5011056;28;20018;-75
2023/01/14 04:05:10;;;;;;;21.10;2.55;;;;;;;;;;4994826;28;20117;-76
2023/01/14 04:07:36;;;;;;;14.73;2.35;;;;;;;;;;5012798;28;20128;-76
2023/01/14 04:10:01;;;;;;;14.65;2.50;;;;;;;;;;4995080;28;20040;-76
2023/01/14 04:12:26;;;;;;;17.52;1.80;;;;;;;;;;4994982;28;20098;-76
2023/01/14 04:17:37;;;;;;;20.85;2.05;;;;;;;;;;5012497;28;20029;-76
2023/01/14 04:20:03;;;;;;;13.75;2.05;;;;;;;;;;5012400;28;20377;-76
2023/01/14 04:22:29;;;;;;;16.30;2.60;;;;;;;;;;5011307;28;20032;-76
2023/01/14 04:24:54;;;;;;;13.95;1.90;;;;;;;;;;5012303;28;20026;-76
2023/01/14 04:27:19;;;;;;;12.00;2.05;;;;;;;;;;4994825;28;20065;-76
2023/01/14 04:29:44;;;;;;;18.80;2.42;;;;;;;;;;4994266;28;20017;-76
2023/01/14 04:32:09;;;;;;;15.10;1.92;;;;;;;;;;5012435;28;20408;-76
2023/01/14 04:34:34;;;;;;;17.92;2.00;;;;;;;;;;5012271;28;20022;-76
2023/01/14 04:37:00;;;;;;;11.90;1.45;;;;;;;;;;5012482;28;20018;-76
2023/01/14 04:39:25;;;;;;;12.43;1.50;;;;;;;;;;5012315;28;20109;-76
2023/01/14 04:44:34;;;;;;;14.70;2.25;;;;;;;;;;5011617;28;20029;-76
2023/01/14 04:46:59;;;;;;;7.55;1.77;;;;;;;;;;5011595;28;20022;-76
2023/01/14 04:49:24;;;;;;;11.18;1.65;;;;;;;;;;4994301;28;20053;-76
2023/01/14 04:51:49;;;;;;;15.55;2.25;;;;;;;;;;5012337;28;20044;-76
2023/01/14 04:54:15;;;;;;;14.13;1.55;;;;;;;;;;5011788;28;20108;-76
2023/01/14 04:56:40;;;;;;;5.47;1.40;;;;;;;;;;5012085;28;20022;-76
2023/01/14 04:59:05;;;;;;;15.32;1.67;;;;;;;;;;5011663;28;20014;-76
2023/01/14 05:01:30;;;;;;;13.65;1.80;;;;;;;;;;5011119;28;20063;-76
2023/01/14 05:03:58;;;;;;;12.88;1.85;;;;;;;;;;5011593;28;20018;-76
2023/01/14 05:06:24;;;;;;;18.17;1.55;;;;;;;;;;4994111;28;20021;-76
2023/01/14 05:08:49;;;;;;;17.55;2.08;;;;;;;;;;5011501;28;20021;-76
2023/01/14 05:11:15;;;;;;;16.38;1.85;;;;;;;;;;4993496;28;20025;-76
2023/01/14 05:13:40;;;;;;;13.68;2.20;;;;;;;;;;4993105;28;20428;-76
2023/01/14 05:16:05;;;;;;;14.52;1.80;;;;;;;;;;4993938;28;20025;-76
2023/01/14 05:18:30;;;;;;;16.42;1.90;;;;;;;;;;4993644;28;20026;-76
2023/01/14 05:20:55;;;;;;;12.82;1.58;;;;;;;;;;5011929;28;20425;-76
2023/01/14 05:23:21;;;;;;;6.13;1.33;;;;;;;;;;4993178;28;20116;-76
2023/01/14 05:25:47;;;;;;;17.40;1.83;;;;;;;;;;5011677;28;20036;-76
2023/01/14 05:28:14;;;;;;;15.20;1.67;;;;;;;;;;5011182;28;20025;-76
2023/01/14 05:30:39;;;;;;;9.13;1.73;;;;;;;;;;5011491;28;20536;-76
2023/01/14 05:33:05;;;;;;;12.40;1.73;;;;;;;;;;4993672;28;20173;-75
2023/01/14 05:35:30;;;;;;;15.93;2.50;;;;;;;;;;5011549;28;20006;-75
2023/01/14 05:37:56;;;;;;;12.32;1.48;;;;;;;;;;5011542;28;20093;-76
2023/01/14 05:40:21;;;;;;;12.52;1.83;;;;;;;;;;4993201;28;20034;-76
2023/01/14 05:45:48;;;;;;;16.02;1.70;;;;;;;;;;5010990;28;20061;-76
2023/01/14 05:48:15;;;;;;;16.73;1.63;;;;;;;;;;5010889;28;20069;-76
2023/01/14 05:50:41;;;;;;;13.68;1.65;;;;;;;;;;5011261;28;20089;-76
2023/01/14 05:53:06;;;;;;;13.48;1.95;;;;;;;;;;5011446;28;20125;-76
2023/01/14 05:55:31;;;;;;;20.15;2.05;;;;;;;;;;5011232;28;20061;-75
2023/01/14 05:57:57;;;;;;;16.80;1.80;;;;;;;;;;4993883;28;20006;-76
2023/01/14 06:08:25;;;;;;;13.85;1.98;;;;;;;;;;5015256;28;20026;-76
2023/01/14 06:10:51;;;;;;;15.02;2.00;;;;;;;;;;5015116;28;20392;-75
2023/01/14 06:13:16;;;;;;;12.15;2.03;;;;;;;;;;5014833;28;20031;-75
2023/01/14 06:15:45;;;;;;;13.43;1.95;;;;;;;;;;5015252;28;20057;-75
2023/01/14 06:18:14;;;;;;;11.02;1.65;;;;;;;;;;5013164;28;20045;-76
2023/01/14 06:20:39;;;;;;;13.90;1.63;;;;;;;;;;4997170;28;20018;-75
2023/01/14 06:23:05;;;;;;;10.65;1.73;;;;;;;;;;4997109;28;20025;-75
2023/01/14 06:25:30;;;;;;;10.40;1.77;;;;;;;;;;4996751;28;20026;-76
2023/01/14 06:27:56;;;;;;;12.55;1.33;;;;;;;;;;4996814;28;20029;-76
2023/01/14 06:30:21;;;;;;;7.50;1.35;;;;;;;;;;5014712;28;20029;-76
2023/01/14 06:32:47;;;;;;;8.05;1.52;;;;;;;;;;5014760;28;20408;-76
2023/01/14 06:35:12;;;;;;;13.02;2.20;;;;;;;;;;5014450;28;20338;-76
2023/01/14 06:37:37;;;;;;;12.10;1.15;;;;;;;;;;4996257;28;20114;-76
2023/01/14 06:40:02;;;;;;;8.90;1.35;;;;;;;;;;5014334;28;20048;-76
2023/01/14 06:42:27;;;;;;;8.35;1.88;;;;;;;;;;5014527;28;20377;-75
2023/01/14 06:44:53;;;;;;;10.48;2.08;;;;;;;;;;5006998;28;20029;-75
2023/01/14 06:47:18;;;;;;;16.38;1.33;;;;;;;;;;5011651;28;20018;-76
2023/01/14 06:49:43;;;;;;;14.95;2.13;;;;;;;;;;4996449;28;20132;-76
2023/01/14 06:52:09;;;;;;;11.32;1.73;;;;;;;;;;5014322;28;20033;-75
2023/01/14 06:54:34;;;;;;;5.93;1.20;;;;;;;;;;5014067;28;20376;-76
2023/01/14 06:56:59;;;;;;;7.00;1.13;;;;;;;;;;5013644;28;20014;-76
2023/01/14 06:59:24;;;;;;;7.68;1.30;;;;;;;;;;5013678;28;20040;-76
2023/01/14 07:01:50;;;;;;;9.20;1.38;;;;;;;;;;5014220;28;20496;-76
2023/01/14 07:04:15;;;;;;;2.97;0.50;;;;;;;;;;5013714;28;20072;-76
2023/01/14 07:06:40;;;;;;;3.08;0.60;;;;;;;;;;5014345;28;20037;-75
2023/01/14 07:09:05;;;;;;;6.65;1.60;;;;;;;;;;5012543;28;20048;-75
2023/01/14 07:11:31;;;;;;;6.90;1.52;;;;;;;;;;5013982;28;20048;-75
2023/01/14 07:13:56;;;;;;;5.85;1.33;;;;;;;;;;5013524;28;20434;-76
2023/01/14 07:16:21;;;;;;;6.30;1.00;;;;;;;;;;5013811;28;20041;-76
2023/01/14 07:18:46;;;;;;;3.50;1.55;;;;;;;;;;5013764;28;20462;-75
2023/01/14 07:21:11;;;;;;;6.18;0.98;;;;;;;;;;5013160;28;20093;-76
2023/01/14 07:23:37;;;;;;;2.88;0.77;;;;;;;;;;5013233;28;20338;-75
2023/01/14 07:26:02;;;;;;;6.57;0.90;;;;;;;;;;4996011;28;20022;-75
2023/01/14 07:28:28;;;;;;;1.73;0.60;;;;;;;;;;5013194;28;20033;-75
2023/01/14 07:30:53;;;;;;;6.05;0.80;;;;;;;;;;5013042;28;20232;-75
2023/01/14 07:33:20;;;;;;;1.40;0.70;;;;;;;;;;5013410;28;20022;-75
2023/01/14 07:35:47;;;;;;;5.93;1.05;;;;;;;;;;5013638;28;20018;-75
2023/01/14 07:38:12;;;;;;;1.58;0.47;;;;;;;;;;5012226;28;20100;-75
2023/01/14 07:40:38;;;;;;;3.15;0.70;;;;;;;;;;5012460;28;20049;-75
2023/01/14 07:43:03;;;;;;;2.10;0.55;;;;;;;;;;5013194;28;20018;-75
2023/01/14 07:45:28;;;;;;;9.93;0.90;;;;;;;;;;4987300;28;20014;-75
2023/01/14 07:47:54;;;;;;;4.95;0.68;;;;;;;;;;5013261;28;20050;-75
2023/01/14 07:50:19;;;;;;;3.58;0.68;;;;;;;;;;5012959;28;20018;-75
2023/01/14 07:52:51;;;;;;;2.20;0.98;;;;;;;;;;5013336;28;20072;-75
2023/01/14 07:55:16;;;;;;;6.18;1.10;;;;;;;;;;5009073;28;20028;-75
2023/01/14 07:57:41;;;;;;;3.50;0.68;;;;;;;;;;5012040;28;20026;-75
2023/01/14 08:00:07;;;;;;;7.47;1.00;;;;;;;;;;5012872;28;20010;-75
2023/01/14 08:02:34;;;;;;;7.20;1.33;;;;;;;;;;4994708;28;20033;-75
2023/01/14 08:04:59;;;;;;;4.18;0.80;;;;;;;;;;5012730;28;20086;-75
2023/01/14 08:07:24;;;;;;;2.15;0.60;;;;;;;;;;4992966;28;20046;-75
2023/01/14 08:09:49;;;;;;;2.72;0.90;;;;;;;;;;5011236;28;20477;-75
2023/01/14 08:12:14;;;;;;;2.25;0.65;;;;;;;;;;5011177;28;20117;-75
2023/01/14 08:14:40;;;;;;;6.18;0.75;;;;;;;;;;5012155;28;20025;-75
2023/01/14 08:17:06;;;;;;;5.00;0.80;;;;;;;;;;5011790;28;20041;-75
2023/01/14 08:19:31;;;;;;;7.88;1.10;;;;;;;;;;4994830;28;20168;-75
2023/01/14 08:21:56;;;;;;;2.80;0.55;;;;;;;;;;4995001;28;20354;-75
2023/01/14 08:24:21;;;;;;;7.95;1.10;;;;;;;;;;4992859;28;20119;-75
2023/01/14 08:26:46;;;;;;;8.52;1.08;;;;;;;;;;4995214;28;20034;-75
2023/01/14 08:29:12;;;;;;;4.55;0.93;;;;;;;;;;5011383;28;20030;-75
2023/01/14 08:31:37;;;;;;;9.68;1.23;;;;;;;;;;5010142;28;20112;-75
2023/01/14 08:34:02;;;;;;;5.43;0.90;;;;;;;;;;5010237;28;20025;-75
2023/01/14 08:36:27;;;;;;;7.38;1.23;;;;;;;;;;4994989;28;20076;-75
2023/01/14 08:38:53;;;;;;;11.88;1.58;;;;;;;;;;5012403;28;20026;-75
2023/01/14 08:41:18;;;;;;;3.50;0.80;;;;;;;;;;4994772;28;20595;-75
2023/01/14 08:43:46;;;;;;;8.40;1.20;;;;;;;;;;4994631;28;20053;-75
2023/01/14 08:46:11;;;;;;;11.18;1.17;;;;;;;;;;4985891;28;20021;-75
2023/01/14 08:48:36;;;;;;;3.75;1.33;;;;;;;;;;5012229;28;20457;-75
2023/01/14 08:51:03;;;;;;;4.55;1.20;;;;;;;;;;5012047;28;20543;-75
2023/01/14 08:53:29;;;;;;;1.77;0.50;;;;;;;;;;5011330;28;20504;-75
2023/01/14 08:55:55;;;;;;;6.32;1.15;;;;;;;;;;5012284;28;20014;-75
2023/01/14 08:58:20;;;;;;;4.93;1.52;;;;;;;;;;4994558;28;20522;-75
2023/01/14 09:00:45;;;;;;;8.57;1.23;;;;;;;;;;4994533;28;20026;-76
2023/01/14 09:03:11;;;;;;;10.63;2.72;;;;;;;;;;5012381;28;20045;-75
2023/01/14 09:05:36;;;;;;;5.00;1.00;;;;;;;;;;5012270;28;20385;-75
2023/01/14 09:18:58;;;;;;;11.23;1.50;;;;;;;;;;5012337;28;20029;-75
2023/01/14 09:21:24;;;;;;;3.22;0.88;;;;;;;;;;5011882;28;20018;-75
2023/01/14 09:23:49;;;;;;;12.55;1.60;;;;;;;;;;5011850;28;20363;-75
2023/01/14 09:26:14;;;;;;;8.98;0.88;;;;;;;;;;4994100;28;20121;-75
2023/01/14 09:28:39;;;;;;;6.07;0.93;;;;;;;;;;5010895;28;20054;-75
2023/01/14 09:31:04;;;;;;;3.97;0.90;;;;;;;;;;5012109;28;20416;-75
2023/01/14 09:33:30;;;;;;;12.50;1.33;;;;;;;;;;5014268;28;20022;-75
2023/01/14 09:35:55;;;;;;;10.52;1.33;;;;;;;;;;5015945;28;20018;-75
2023/01/14 09:38:20;;;;;;;6.97;1.02;;;;;;;;;;5015502;28;20028;-75
2023/01/14 09:40:45;;;;;;;9.30;1.55;;;;;;;;;;5015874;28;20022;-75
2023/01/14 09:43:15;;;;;;;5.47;1.15;;;;;;;;;;5015756;28;20022;-75
2023/01/14 09:45:40;;;;;;;6.68;1.45;;;;;;;;;;4988288;28;20396;-75
2023/01/14 09:48:14;;;;;;;13.30;1.70;;;;;;;;;;4997965;28;20026;-75
2023/01/14 09:50:39;;;;;;;2.55;0.98;;;;;;;;;;5014704;28;20046;-75
2023/01/14 09:53:14;;;;;;;9.10;1.55;;;;;;;;;;4997895;28;20025;-75
2023/01/14 09:55:43;;;;;;;7.68;1.20;;;;;;;;;;4997965;28;20026;-75
2023/01/14 09:58:23;;;;;;;9.88;1.20;;;;;;;;;;5015471;28;20014;-75
2023/01/14 10:00:56;;;;;;;2.95;0.57;;;;;;;;;;5015234;28;20076;-75
2023/01/14 10:03:27;;;;;;;2.13;0.70;;;;;;;;;;4997800;28;20032;-75
2023/01/14 10:06:00;;;;;;;8.25;0.95;;;;;;;;;;5015390;28;20030;-74
2023/01/14 10:08:28;;;;;;;6.82;0.77;;;;;;;;;;5012894;28;20030;-75
2023/01/14 10:10:54;;;;;;;3.67;0.90;;;;;;;;;;5011954;28;20030;-75
2023/01/14 10:13:22;;;;;;;5.10;0.73;;;;;;;;;;5011766;28;20036;-75
2023/01/14 10:15:55;;;;;;;3.53;0.65;;;;;;;;;;4997046;28;20461;-75
2023/01/14 10:18:44;;;;;;;0.38;0.30;;;;;;;;;;5009778;28;20022;-75
2023/01/14 10:21:23;;;;;;;3.80;0.57;;;;;;;;;;5006139;28;20040;-75
2023/01/14 10:23:49;;;;;;;4.78;0.60;;;;;;;;;;5012741;28;20377;-75
2023/01/14 10:26:15;;;;;;;4.13;0.77;;;;;;;;;;5012576;28;20104;-75
2023/01/14 10:28:42;;;;;;;3.63;0.73;;;;;;;;;;5013861;28;20397;-75
2023/01/14 10:31:13;;;;;;;5.43;0.82;;;;;;;;;;5013278;28;20022;-75
2023/01/14 10:33:38;;;;;;;2.67;0.60;;;;;;;;;;5002666;28;20061;-75
2023/01/14 10:36:06;;;;;;;4.95;0.55;;;;;;;;;;5014119;28;20056;-75
2023/01/14 10:38:31;;;;;;;0.70;0.52;;;;;;;;;;5013054;28;20112;-75
2023/01/14 10:41:02;;;;;;;3.13;0.80;;;;;;;;;;5011410;28;20627;-75
2023/01/14 10:43:32;;;;;;;2.88;0.77;;;;;;;;;;5014716;28;20040;-75
2023/01/14 10:46:05;;;;;;;1.33;0.40;;;;;;;;;;5012519;28;20026;-75
2023/01/14 10:48:56;;;;;;;3.13;0.63;;;;;;;;;;5013026;28;20743;-75
2023/01/14 10:51:32;;;;;;;4.28;1.13;;;;;;;;;;4981928;28;20049;-75
2023/01/14 10:54:16;;;;;;;2.85;0.47;;;;;;;;;;5014121;28;20022;-75
2023/01/14 10:56:44;;;;;;;3.53;0.93;;;;;;;;;;5012867;28;20333;-75
2023/01/14 10:59:32;;;;;;;2.20;0.40;;;;;;;;;;4996223;28;20117;-75
2023/01/14 11:01:58;;;;;;;3.20;0.60;;;;;;;;;;5008988;28;20106;-75
2023/01/14 11:04:26;;;;;;;1.75;0.45;;;;;;;;;;5013149;28;20449;-75
2023/01/14 11:06:51;;;;;;;4.88;0.85;;;;;;;;;;4997550;28;20133;-75
2023/01/14 11:09:18;;;;;;;1.23;0.40;;;;;;;;;;5014441;28;20100;-75
2023/01/14 11:11:45;;;;;;;2.03;0.50;;;;;;;;;;5012255;28;20041;-75
2023/01/14 11:14:37;;;;;;;1.60;0.50;;;;;;;;;;5011234;28;20304;-74
2023/01/14 11:17:22;;;;;;;2.05;0.60;;;;;;;;;;4985062;28;20400;-75
2023/01/14 11:19:48;;;;;;;2.90;0.50;;;;;;;;;;5013380;28;20013;-75
2023/01/14 11:22:13;;;;;;;3.22;0.75;;;;;;;;;;4995974;28;20492;-75
2023/01/14 11:24:39;;;;;;;2.03;0.57;;;;;;;;;;5015515;28;20030;-75
2023/01/14 11:27:14;;;;;;;1.15;0.50;;;;;;;;;;5011963;28;20018;-74
2023/01/14 11:29:47;;;;;;;1.42;0.63;;;;;;;;;;5011611;28;20125;-75
2023/01/14 11:32:14;;;;;;;1.60;0.57;;;;;;;;;;4997618;28;20557;-75
2023/01/14 11:34:48;;;;;;;2.50;0.45;;;;;;;;;;5008769;28;20014;-75
2023/01/14 11:37:18;;;;;;;1.88;0.90;;;;;;;;;;5011597;28;20105;-75
2023/01/14 11:39:54;;;;;;;2.60;0.65;;;;;;;;;;5010963;28;20028;-75
2023/01/14 11:42:25;;;;;;;5.03;1.00;;;;;;;;;;4994437;28;20026;-75
2023/01/14 11:45:01;;;;;;;1.17;0.50;;;;;;;;;;5011205;28;20014;-75
2023/01/14 11:47:27;;;;;;;4.53;0.45;;;;;;;;;;5011066;28;20022;-75
2023/01/14 11:50:18;;;;;;;1.40;0.55;;;;;;;;;;5012276;28;20022;-75
2023/01/14 11:53:02;;;;;;;2.65;0.80;;;;;;;;;;5009447;28;20519;-75
2023/01/14 11:55:28;;;;;;;2.53;0.80;;;;;;;;;;4990372;28;20048;-75
2023/01/14 11:57:58;;;;;;;2.72;0.75;;;;;;;;;;5012384;28;20020;-74
2023/01/14 12:00:23;;;;;;;1.70;0.93;;;;;;;;;;4996606;28;20022;-75
2023/01/14 12:02:53;;;;;;;0.60;0.40;;;;;;;;;;5010089;28;20025;-75
2023/01/14 12:05:21;;;;;;;1.10;0.50;;;;;;;;;;5009424;28;20017;-75
2023/01/14 12:07:50;;;;;;;1.67;0.30;;;;;;;;;;5009303;28;20028;-75
2023/01/14 12:10:18;;;;;;;1.60;0.40;;;;;;;;;;4994213;28;20112;-77
2023/01/14 12:18:19;;;;;;;2.85;0.60;;;;;;;;;;5006295;28;20099;-75
2023/01/14 12:20:45;;;;;;;1.27;0.63;;;;;;;;;;5007213;28;20526;-75
2023/01/14 12:23:14;;;;;;;2.38;0.57;;;;;;;;;;5010663;28;20100;-75
2023/01/14 12:25:41;;;;;;;1.02;0.30;;;;;;;;;;5011471;28;20026;-75
2023/01/14 12:28:12;;;;;;;4.13;0.68;;;;;;;;;;4985853;28;20021;-75
2023/01/14 12:30:55;;;;;;;2.40;0.52;;;;;;;;;;5009698;28;20113;-75
2023/01/14 12:33:24;;;;;;;0.50;0.40;;;;;;;;;;5006149;28;20027;-75
2023/01/14 12:36:05;;;;;;;0.60;0.38;;;;;;;;;;5006380;28;20030;-75
2023/01/14 12:47:00;;;;;;;3.90;0.73;;;;;;;;;;5005897;28;20033;-76
2023/01/14 12:49:25;;;;;;;1.90;0.55;;;;;;;;;;5010466;28;20041;-76
2023/01/14 12:51:50;;;;;;;2.33;0.77;;;;;;;;;;5011553;28;20458;-75
2023/01/14 12:54:24;;;;;;;0.75;0.60;;;;;;;;;;5009741;28;20017;-75
2023/01/14 12:56:52;;;;;;;2.22;1.42;;;;;;;;;;5012040;28;20029;-76
2023/01/14 12:59:21;;;;;;;0.90;0.60;;;;;;;;;;5011161;28;20042;-75
2023/01/14 13:01:51;;;;;;;2.35;0.63;;;;;;;;;;5007577;28;20394;-76
2023/01/14 13:04:24;;;;;;;2.72;0.77;;;;;;;;;;4996404;28;20029;-76
2023/01/14 13:07:01;;;;;;;5.68;0.80;;;;;;;;;;5011226;28;20430;-75
2023/01/14 13:09:28;;;;;;;1.42;0.80;;;;;;;;;;5009020;28;20307;-76
2023/01/14 13:11:55;;;;;;;2.00;1.00;;;;;;;;;;4997571;28;20450;-75
2023/01/14 13:14:26;;;;;;;3.10;1.30;;;;;;;;;;5005907;28;20533;-76
2023/01/14 13:16:58;;;;;;;1.95;0.73;;;;;;;;;;4992374;28;20084;-76
2023/01/14 13:19:26;;;;;;;2.53;0.63;;;;;;;;;;4993323;28;20080;-76
2023/01/14 13:22:04;;;;;;;2.20;0.90;;;;;;;;;;5006319;28;20018;-76
2023/01/14 13:24:32;;;;;;;1.48;0.95;;;;;;;;;;5008641;28;20030;-76
2023/01/14 13:26:59;;;;;;;2.40;0.93;;;;;;;;;;5010155;28;20026;-76
2023/01/14 13:29:25;;;;;;;2.50;1.08;;;;;;;;;;5010369;28;20022;-76
2023/01/14 13:31:52;;;;;;;3.38;0.88;;;;;;;;;;5008119;28;20065;-76
2023/01/14 13:34:21;;;;;;;2.58;1.02;;;;;;;;;;5008846;28;20108;-76
2023/01/14 13:36:46;;;;;;;2.25;0.90;;;;;;;;;;5010081;28;20474;-76
2023/01/14 13:39:17;;;;;;;1.85;0.75;;;;;;;;;;5009857;28;20037;-77
2023/01/14 13:41:44;;;;;;;2.55;0.63;;;;;;;;;;5010272;28;20022;-77
2023/01/14 13:44:19;;;;;;;2.78;0.73;;;;;;;;;;5007263;28;20030;-77
2023/01/14 13:46:46;;;;;;;2.65;0.75;;;;;;;;;;5002676;28;20041;-77
2023/01/14 13:49:23;;;;;;;3.00;0.80;;;;;;;;;;5009721;28;20045;-77
2023/01/14 13:51:49;;;;;;;2.78;0.70;;;;;;;;;;5009481;28;20022;-76
2023/01/14 13:54:23;;;;;;;1.30;0.60;;;;;;;;;;5000702;28;20071;-77
2023/01/14 13:56:50;;;;;;;2.45;0.90;;;;;;;;;;5002938;28;20476;-76
2023/01/14 13:59:21;;;;;;;1.92;0.65;;;;;;;;;;5009526;28;20092;-76
2023/01/14 14:01:47;;;;;;;3.65;1.00;;;;;;;;;;4994917;28;20161;-76
2023/01/14 14:04:13;;;;;;;1.65;0.90;;;;;;;;;;4992096;28;20117;-77
2023/01/14 14:06:38;;;;;;;2.63;1.00;;;;;;;;;;5007034;28;20018;-76
2023/01/14 14:09:03;;;;;;;1.73;1.20;;;;;;;;;;4998060;28;20157;-76
2023/01/14 14:11:33;;;;;;;1.38;0.80;;;;;;;;;;5008343;28;20096;-76
2023/01/14 14:14:07;;;;;;;3.28;1.00;;;;;;;;;;5009713;28;20021;-76
2023/01/14 14:16:51;;;;;;;2.60;0.88;;;;;;;;;;5007812;28;20045;-76
2023/01/14 14:19:19;;;;;;;1.35;0.65;;;;;;;;;;5011276;28;20442;-76
2023/01/14 14:21:58;;;;;;;1.65;0.70;;;;;;;;;;5012991;28;20022;-76
2023/01/14 14:24:42;;;;;;;2.63;0.88;;;;;;;;;;5014036;28;20026;-76
2023/01/14 14:27:10;;;;;;;1.77;0.70;;;;;;;;;;5003437;28;20032;-76
2023/01/14 14:29:37;;;;;;;3.50;0.90;;;;;;;;;;5013665;28;20045;-77
2023/01/14 14:32:09;;;;;;;1.02;0.70;;;;;;;;;;5013795;28;20038;-77
2023/01/14 14:34:34;;;;;;;1.58;0.70;;;;;;;;;;5013575;28;20117;-77
2023/01/14 14:37:02;;;;;;;1.52;0.50;;;;;;;;;;4995945;28;20088;-77
2023/01/14 14:39:35;;;;;;;1.98;0.65;;;;;;;;;;5013714;28;20037;-77
2023/01/14 14:42:00;;;;;;;;;;;;;;;;;;5014622;28;20089;-77
2023/01/14 14:44:26;;;;;;;3.22;1.00;;;;;;;;;;5014045;28;20004;-77
2023/01/14 14:46:52;;;;;;;2.92;0.70;;;;;;;;;;4995630;28;20423;-77
2023/01/14 14:49:23;;;;;;;1.58;0.60;;;;;;;;;;5009073;28;20038;-77
2023/01/14 14:51:49;;;;;;;1.58;0.60;;;;;;;;;;5013426;28;20022;-76
2023/01/14 14:54:29;;;;;;;1.85;0.60;;;;;;;;;;5012627;28;20038;-77
2023/01/14 14:56:55;;;;;;;1.20;0.60;;;;;;;;;;5000719;28;20018;-76
2023/01/14 14:59:21;;;;;;;2.53;0.50;;;;;;;;;;4995331;28;20037;-77
2023/01/14 15:01:46;;;;;;;1.65;0.70;;;;;;;;;;5014098;28;20017;-77
2023/01/14 15:04:15;;;;;;;0.70;0.63;;;;;;;;;;5013919;28;20029;-77
2023/01/14 15:06:41;;;;;;;1.77;0.82;;;;;;;;;;4996347;28;20100;-76
2023/01/14 15:09:08;;;;;;;2.85;0.60;;;;;;;;;;5010951;28;20108;-76
2023/01/14 15:11:35;;;;;;;2.45;0.80;;;;;;;;;;4996208;28;20034;-76
2023/01/14 15:14:01;;;;;;;1.77;0.70;;;;;;;;;;5011682;28;20125;-76
2023/01/14 15:16:33;;;;;;;1.67;0.82;;;;;;;;;;5013254;28;20105;-76
2023/01/14 15:18:58;;;;;;;3.28;1.30;;;;;;;;;;5012788;28;20070;-77
2023/01/14 15:21:26;;;;;;;4.13;0.85;;;;;;;;;;5012333;28;20068;-76
2023/01/14 15:23:53;;;;;;;1.13;0.60;;;;;;;;;;5009986;28;20084;-76
2023/01/14 15:26:20;;;;;;;5.65;0.40;;;;;;;;;;5009052;28;20045;-76
2023/01/14 15:28:46;;;;;;;0.70;0.57;;;;;;;;;;5012890;28;20030;-76
2023/01/14 15:31:25;;;;;;;1.38;0.60;;;;;;;;;;4995412;28;20033;-75